sensor_id;sensor_type;location;lat;lon;timestamp;P1;durP1;ratioP1;P2;durP2;ratioP2
72575;SDS011;60613;48.658;2.328;2022-08-04T00:01:16;7.00;;;1.48;;
72575;SDS011;60613;48.658;2.328;2022-08-04T00:06:44;5.57;;;1.50;;
72575;SDS011;60613;48.658;2.328;2022-08-04T00:09:21;7.13;;;1.52;;
72575;SDS011;60613;48.658;2.328;2022-08-04T00:11:53;3.95;;;1.30;;
72575;SDS011;60613;48.658;2.328;2022-08-04T00:14:24;4.93;;;1.40;;
72575;SDS011;60613;48.658;2.328;2022-08-04T00:16:52;6.03;;;1.30;;
72575;SDS011;60613;48.658;2.328;2022-08-04T00:19:22;5.70;;;1.50;;
72575;SDS011;60613;48.658;2.328;2022-08-04T00:22:02;4.25;;;1.30;;
72575;SDS011;60613;48.658;2.328;2022-08-04T00:24:29;6.25;;;1.35;;
72575;SDS011;60613;48.658;2.328;2022-08-04T00:26:56;5.35;;;1.40;;
72575;SDS011;60613;48.658;2.328;2022-08-04T00:29:22;5.83;;;1.47;;
72575;SDS011;60613;48.658;2.328;2022-08-04T00:31:48;4.38;;;1.30;;
72575;SDS011;60613;48.658;2.328;2022-08-04T00:34:14;5.80;;;1.40;;
72575;SDS011;60613;48.658;2.328;2022-08-04T00:36:44;5.75;;;1.35;;
72575;SDS011;60613;48.658;2.328;2022-08-04T00:39:10;6.80;;;1.60;;
72575;SDS011;60613;48.658;2.328;2022-08-04T00:53:07;6.10;;;1.50;;
72575;SDS011;60613;48.658;2.328;2022-08-04T00:58:46;6.18;;;1.60;;
72575;SDS011;60613;48.658;2.328;2022-08-04T01:01:21;4.93;;;1.30;;
72575;SDS011;60613;48.658;2.328;2022-08-04T01:09:23;5.83;;;1.40;;
72575;SDS011;60613;48.658;2.328;2022-08-04T01:15:02;5.65;;;1.52;;
72575;SDS011;60613;48.658;2.328;2022-08-04T01:17:53;7.47;;;1.73;;
72575;SDS011;60613;48.658;2.328;2022-08-04T01:20:43;7.63;;;1.50;;
72575;SDS011;60613;48.658;2.328;2022-08-04T01:23:29;4.80;;;1.30;;
72575;SDS011;60613;48.658;2.328;2022-08-04T01:29:14;5.35;;;1.13;;
72575;SDS011;60613;48.658;2.328;2022-08-04T01:34:35;6.55;;;1.60;;
72575;SDS011;60613;48.658;2.328;2022-08-04T01:37:10;6.93;;;1.50;;
72575;SDS011;60613;48.658;2.328;2022-08-04T01:39:46;4.13;;;1.30;;
72575;SDS011;60613;48.658;2.328;2022-08-04T01:42:16;6.10;;;1.40;;
72575;SDS011;60613;48.658;2.328;2022-08-04T01:44:44;6.00;;;1.55;;
72575;SDS011;60613;48.658;2.328;2022-08-04T01:47:13;4.32;;;1.40;;
72575;SDS011;60613;48.658;2.328;2022-08-04T01:49:45;6.73;;;1.50;;
72575;SDS011;60613;48.658;2.328;2022-08-04T01:52:15;5.82;;;1.30;;
72575;SDS011;60613;48.658;2.328;2022-08-04T01:54:42;6.05;;;1.30;;
72575;SDS011;60613;48.658;2.328;2022-08-04T01:57:09;6.03;;;1.50;;
72575;SDS011;60613;48.658;2.328;2022-08-04T01:59:35;7.05;;;1.48;;
72575;SDS011;60613;48.658;2.328;2022-08-04T02:02:02;4.53;;;1.40;;
72575;SDS011;60613;48.658;2.328;2022-08-04T02:04:31;4.65;;;1.30;;
72575;SDS011;60613;48.658;2.328;2022-08-04T02:07:01;5.60;;;1.40;;
72575;SDS011;60613;48.658;2.328;2022-08-04T02:09:38;5.03;;;1.40;;
72575;SDS011;60613;48.658;2.328;2022-08-04T02:12:41;6.80;;;1.60;;
72575;SDS011;60613;48.658;2.328;2022-08-04T02:15:34;6.18;;;1.50;;
72575;SDS011;60613;48.658;2.328;2022-08-04T02:18:24;4.55;;;1.40;;
72575;SDS011;60613;48.658;2.328;2022-08-04T02:20:57;7.75;;;1.55;;
72575;SDS011;60613;48.658;2.328;2022-08-04T02:23:29;7.00;;;1.50;;
72575;SDS011;60613;48.658;2.328;2022-08-04T02:26:00;7.70;;;1.38;;
72575;SDS011;60613;48.658;2.328;2022-08-04T02:34:46;5.53;;;1.40;;
72575;SDS011;60613;48.658;2.328;2022-08-04T02:36:54;6.20;;;1.57;;
72575;SDS011;60613;48.658;2.328;2022-08-04T02:39:21;5.10;;;1.40;;
72575;SDS011;60613;48.658;2.328;2022-08-04T02:41:48;4.70;;;1.40;;
72575;SDS011;60613;48.658;2.328;2022-08-04T02:44:22;4.10;;;1.30;;
72575;SDS011;60613;48.658;2.328;2022-08-04T02:46:51;5.70;;;1.40;;
72575;SDS011;60613;48.658;2.328;2022-08-04T02:49:18;5.43;;;1.33;;
72575;SDS011;60613;48.658;2.328;2022-08-04T02:51:46;4.82;;;1.10;;
72575;SDS011;60613;48.658;2.328;2022-08-04T02:54:16;6.75;;;1.30;;
72575;SDS011;60613;48.658;2.328;2022-08-04T02:56:47;5.28;;;1.30;;
72575;SDS011;60613;48.658;2.328;2022-08-04T02:59:16;4.38;;;1.08;;
72575;SDS011;60613;48.658;2.328;2022-08-04T03:01:44;4.27;;;1.20;;
72575;SDS011;60613;48.658;2.328;2022-08-04T03:06:56;3.35;;;1.30;;
72575;SDS011;60613;48.658;2.328;2022-08-04T03:21:29;5.95;;;1.70;;
72575;SDS011;60613;48.658;2.328;2022-08-04T03:30:19;6.85;;;1.40;;
72575;SDS011;60613;48.658;2.328;2022-08-04T03:35:44;6.20;;;1.70;;
72575;SDS011;60613;48.658;2.328;2022-08-04T03:47:39;5.03;;;1.58;;
72575;SDS011;60613;48.658;2.328;2022-08-04T04:01:52;4.20;;;1.20;;
72575;SDS011;60613;48.658;2.328;2022-08-04T04:07:22;6.80;;;1.30;;
72575;SDS011;60613;48.658;2.328;2022-08-04T04:16:42;5.85;;;1.45;;
72575;SDS011;60613;48.658;2.328;2022-08-04T04:30:36;3.78;;;1.15;;
72575;SDS011;60613;48.658;2.328;2022-08-04T04:33:30;6.50;;;1.60;;
72575;SDS011;60613;48.658;2.328;2022-08-04T04:36:33;4.40;;;1.27;;
72575;SDS011;60613;48.658;2.328;2022-08-04T04:39:25;5.53;;;1.50;;
72575;SDS011;60613;48.658;2.328;2022-08-04T04:47:30;6.27;;;1.30;;
72575;SDS011;60613;48.658;2.328;2022-08-04T04:50:31;5.00;;;1.45;;
72575;SDS011;60613;48.658;2.328;2022-08-04T04:56:10;6.20;;;1.65;;
72575;SDS011;60613;48.658;2.328;2022-08-04T04:58:41;7.20;;;1.60;;
72575;SDS011;60613;48.658;2.328;2022-08-04T05:04:00;5.97;;;1.40;;
72575;SDS011;60613;48.658;2.328;2022-08-04T05:15:26;5.63;;;1.50;;
72575;SDS011;60613;48.658;2.328;2022-08-04T05:17:55;5.93;;;1.60;;
72575;SDS011;60613;48.658;2.328;2022-08-04T05:20:26;5.20;;;1.40;;
72575;SDS011;60613;48.658;2.328;2022-08-04T05:23:11;6.40;;;1.50;;
72575;SDS011;60613;48.658;2.328;2022-08-04T05:25:42;6.32;;;1.60;;
72575;SDS011;60613;48.658;2.328;2022-08-04T05:31:17;4.78;;;1.48;;
72575;SDS011;60613;48.658;2.328;2022-08-04T05:33:51;6.70;;;1.40;;
72575;SDS011;60613;48.658;2.328;2022-08-04T05:36:19;5.90;;;1.40;;
72575;SDS011;60613;48.658;2.328;2022-08-04T05:38:50;4.57;;;1.50;;
72575;SDS011;60613;48.658;2.328;2022-08-04T05:41:19;5.07;;;1.40;;
72575;SDS011;60613;48.658;2.328;2022-08-04T05:43:47;5.88;;;1.60;;
72575;SDS011;60613;48.658;2.328;2022-08-04T05:46:13;5.35;;;1.48;;
72575;SDS011;60613;48.658;2.328;2022-08-04T05:48:40;5.40;;;1.40;;
72575;SDS011;60613;48.658;2.328;2022-08-04T05:51:08;6.80;;;1.58;;
72575;SDS011;60613;48.658;2.328;2022-08-04T05:53:35;4.97;;;1.60;;
72575;SDS011;60613;48.658;2.328;2022-08-04T05:56:02;5.13;;;1.30;;
72575;SDS011;60613;48.658;2.328;2022-08-04T05:58:30;6.70;;;1.33;;
72575;SDS011;60613;48.658;2.328;2022-08-04T06:00:57;5.23;;;1.40;;
72575;SDS011;60613;48.658;2.328;2022-08-04T06:03:24;4.22;;;1.50;;
72575;SDS011;60613;48.658;2.328;2022-08-04T06:05:53;6.50;;;1.40;;
72575;SDS011;60613;48.658;2.328;2022-08-04T06:08:20;5.88;;;1.42;;
72575;SDS011;60613;48.658;2.328;2022-08-04T06:10:46;5.55;;;1.50;;
72575;SDS011;60613;48.658;2.328;2022-08-04T06:13:16;5.93;;;1.40;;
72575;SDS011;60613;48.658;2.328;2022-08-04T06:15:44;4.45;;;1.30;;
72575;SDS011;60613;48.658;2.328;2022-08-04T06:18:12;5.88;;;1.48;;
72575;SDS011;60613;48.658;2.328;2022-08-04T06:20:40;6.90;;;1.60;;
72575;SDS011;60613;48.658;2.328;2022-08-04T06:23:09;3.63;;;1.35;;
72575;SDS011;60613;48.658;2.328;2022-08-04T06:25:40;6.70;;;1.50;;
72575;SDS011;60613;48.658;2.328;2022-08-04T06:28:10;6.65;;;1.50;;
72575;SDS011;60613;48.658;2.328;2022-08-04T06:30:37;6.00;;;1.38;;
72575;SDS011;60613;48.658;2.328;2022-08-04T06:33:04;4.15;;;1.40;;
72575;SDS011;60613;48.658;2.328;2022-08-04T06:35:48;6.68;;;1.67;;
72575;SDS011;60613;48.658;2.328;2022-08-04T06:38:24;5.20;;;1.50;;
72575;SDS011;60613;48.658;2.328;2022-08-04T06:40:52;4.95;;;1.48;;
72575;SDS011;60613;48.658;2.328;2022-08-04T06:43:19;5.38;;;1.73;;
72575;SDS011;60613;48.658;2.328;2022-08-04T06:45:46;9.23;;;1.98;;
72575;SDS011;60613;48.658;2.328;2022-08-04T06:48:14;7.25;;;1.60;;
72575;SDS011;60613;48.658;2.328;2022-08-04T06:50:42;7.63;;;1.90;;
72575;SDS011;60613;48.658;2.328;2022-08-04T06:53:09;5.63;;;1.45;;
72575;SDS011;60613;48.658;2.328;2022-08-04T06:55:35;7.60;;;1.70;;
72575;SDS011;60613;48.658;2.328;2022-08-04T06:58:02;5.13;;;1.50;;
72575;SDS011;60613;48.658;2.328;2022-08-04T07:00:30;8.25;;;1.60;;
72575;SDS011;60613;48.658;2.328;2022-08-04T07:02:56;11.33;;;2.00;;
72575;SDS011;60613;48.658;2.328;2022-08-04T07:05:23;10.43;;;1.90;;
72575;SDS011;60613;48.658;2.328;2022-08-04T07:07:50;8.23;;;1.80;;
72575;SDS011;60613;48.658;2.328;2022-08-04T07:10:15;9.57;;;1.92;;
72575;SDS011;60613;48.658;2.328;2022-08-04T07:12:43;7.27;;;1.57;;
72575;SDS011;60613;48.658;2.328;2022-08-04T07:15:10;6.85;;;1.45;;
72575;SDS011;60613;48.658;2.328;2022-08-04T07:17:37;6.43;;;1.80;;
72575;SDS011;60613;48.658;2.328;2022-08-04T07:20:04;9.85;;;1.60;;
72575;SDS011;60613;48.658;2.328;2022-08-04T07:22:30;7.80;;;1.70;;
72575;SDS011;60613;48.658;2.328;2022-08-04T07:24:56;7.40;;;1.90;;
72575;SDS011;60613;48.658;2.328;2022-08-04T07:27:23;8.25;;;1.90;;
72575;SDS011;60613;48.658;2.328;2022-08-04T07:29:50;7.00;;;1.80;;
72575;SDS011;60613;48.658;2.328;2022-08-04T07:32:18;7.40;;;1.77;;
72575;SDS011;60613;48.658;2.328;2022-08-04T07:34:44;7.03;;;1.77;;
72575;SDS011;60613;48.658;2.328;2022-08-04T07:37:13;10.23;;;1.80;;
72575;SDS011;60613;48.658;2.328;2022-08-04T07:39:39;8.27;;;1.83;;
72575;SDS011;60613;48.658;2.328;2022-08-04T07:42:05;7.80;;;2.00;;
72575;SDS011;60613;48.658;2.328;2022-08-04T07:44:31;7.88;;;1.70;;
72575;SDS011;60613;48.658;2.328;2022-08-04T07:46:58;7.40;;;1.70;;
72575;SDS011;60613;48.658;2.328;2022-08-04T07:49:25;7.57;;;1.53;;
72575;SDS011;60613;48.658;2.328;2022-08-04T07:51:51;8.50;;;1.80;;
72575;SDS011;60613;48.658;2.328;2022-08-04T07:54:17;7.18;;;1.80;;
72575;SDS011;60613;48.658;2.328;2022-08-04T07:56:44;11.63;;;2.38;;
72575;SDS011;60613;48.658;2.328;2022-08-04T07:59:13;9.37;;;2.07;;
72575;SDS011;60613;48.658;2.328;2022-08-04T08:01:40;9.32;;;2.00;;
72575;SDS011;60613;48.658;2.328;2022-08-04T08:04:06;8.63;;;2.38;;
72575;SDS011;60613;48.658;2.328;2022-08-04T08:06:34;9.20;;;1.88;;
72575;SDS011;60613;48.658;2.328;2022-08-04T08:09:08;11.23;;;1.90;;
72575;SDS011;60613;48.658;2.328;2022-08-04T08:11:36;8.20;;;1.85;;
72575;SDS011;60613;48.658;2.328;2022-08-04T08:14:02;9.18;;;2.10;;
72575;SDS011;60613;48.658;2.328;2022-08-04T08:16:27;9.37;;;1.80;;
72575;SDS011;60613;48.658;2.328;2022-08-04T08:18:54;10.33;;;2.10;;
72575;SDS011;60613;48.658;2.328;2022-08-04T08:21:20;10.32;;;2.00;;
72575;SDS011;60613;48.658;2.328;2022-08-04T08:23:46;8.05;;;1.90;;
72575;SDS011;60613;48.658;2.328;2022-08-04T08:26:14;8.80;;;2.10;;
72575;SDS011;60613;48.658;2.328;2022-08-04T08:28:40;11.47;;;2.00;;
72575;SDS011;60613;48.658;2.328;2022-08-04T08:31:06;16.08;;;2.30;;
72575;SDS011;60613;48.658;2.328;2022-08-04T08:33:31;11.20;;;2.20;;
72575;SDS011;60613;48.658;2.328;2022-08-04T08:36:02;8.50;;;1.90;;
72575;SDS011;60613;48.658;2.328;2022-08-04T08:38:39;17.38;;;2.65;;
72575;SDS011;60613;48.658;2.328;2022-08-04T08:46:57;14.85;;;2.00;;
72575;SDS011;60613;48.658;2.328;2022-08-04T08:54:55;10.33;;;1.80;;
72575;SDS011;60613;48.658;2.328;2022-08-04T09:00:41;9.25;;;1.73;;
72575;SDS011;60613;48.658;2.328;2022-08-04T09:03:16;9.82;;;2.20;;
72575;SDS011;60613;48.658;2.328;2022-08-04T09:12:20;12.05;;;2.20;;
72575;SDS011;60613;48.658;2.328;2022-08-04T09:14:52;9.73;;;2.00;;
72575;SDS011;60613;48.658;2.328;2022-08-04T09:17:29;8.70;;;2.13;;
72575;SDS011;60613;48.658;2.328;2022-08-04T09:22:53;12.13;;;2.10;;
72575;SDS011;60613;48.658;2.328;2022-08-04T09:25:29;11.23;;;2.03;;
72575;SDS011;60613;48.658;2.328;2022-08-04T09:28:06;8.00;;;1.63;;
72575;SDS011;60613;48.658;2.328;2022-08-04T09:30:44;11.20;;;2.10;;
72575;SDS011;60613;48.658;2.328;2022-08-04T09:36:18;9.83;;;1.87;;
72575;SDS011;60613;48.658;2.328;2022-08-04T09:47:02;8.23;;;1.77;;
72575;SDS011;60613;48.658;2.328;2022-08-04T09:49:35;7.33;;;1.83;;
72575;SDS011;60613;48.658;2.328;2022-08-04T09:58:14;7.93;;;2.28;;
72575;SDS011;60613;48.658;2.328;2022-08-04T10:00:50;8.55;;;2.20;;
72575;SDS011;60613;48.658;2.328;2022-08-04T10:03:26;7.47;;;1.80;;
72575;SDS011;60613;48.658;2.328;2022-08-04T10:17:01;10.20;;;2.83;;
72575;SDS011;60613;48.658;2.328;2022-08-04T10:19:34;7.72;;;2.55;;
72575;SDS011;60613;48.658;2.328;2022-08-04T10:30:18;8.77;;;2.40;;
72575;SDS011;60613;48.658;2.328;2022-08-04T10:32:57;8.27;;;2.08;;
72575;SDS011;60613;48.658;2.328;2022-08-04T10:35:30;7.40;;;1.80;;
72575;SDS011;60613;48.658;2.328;2022-08-04T10:40:43;5.93;;;1.58;;
72575;SDS011;60613;48.658;2.328;2022-08-04T10:51:45;8.35;;;1.58;;
72575;SDS011;60613;48.658;2.328;2022-08-04T10:55:02;8.10;;;1.42;;
72575;SDS011;60613;48.658;2.328;2022-08-04T11:07:46;7.97;;;1.58;;
72575;SDS011;60613;48.658;2.328;2022-08-04T11:10:15;9.68;;;1.80;;
72575;SDS011;60613;48.658;2.328;2022-08-04T11:12:46;7.30;;;1.50;;
72575;SDS011;60613;48.658;2.328;2022-08-04T11:15:19;4.40;;;1.17;;
72575;SDS011;60613;48.658;2.328;2022-08-04T11:17:51;7.20;;;1.30;;
72575;SDS011;60613;48.658;2.328;2022-08-04T11:20:37;4.88;;;1.35;;
72575;SDS011;60613;48.658;2.328;2022-08-04T11:25:43;5.03;;;1.10;;
72575;SDS011;60613;48.658;2.328;2022-08-04T11:31:03;4.10;;;1.05;;
72575;SDS011;60613;48.658;2.328;2022-08-04T11:38:52;5.13;;;1.20;;
72575;SDS011;60613;48.658;2.328;2022-08-04T11:49:44;4.37;;;1.20;;
72575;SDS011;60613;48.658;2.328;2022-08-04T11:52:13;4.10;;;1.02;;
72575;SDS011;60613;48.658;2.328;2022-08-04T11:54:43;5.78;;;1.20;;
72575;SDS011;60613;48.658;2.328;2022-08-04T11:57:10;3.65;;;1.10;;
72575;SDS011;60613;48.658;2.328;2022-08-04T11:59:36;6.03;;;1.20;;
72575;SDS011;60613;48.658;2.328;2022-08-04T12:04:44;3.33;;;1.00;;
72575;SDS011;60613;48.658;2.328;2022-08-04T12:10:14;5.15;;;0.98;;
72575;SDS011;60613;48.658;2.328;2022-08-04T12:15:29;3.70;;;1.00;;
72575;SDS011;60613;48.658;2.328;2022-08-04T12:18:07;3.50;;;1.10;;
72575;SDS011;60613;48.658;2.328;2022-08-04T12:20:50;4.65;;;1.20;;
72575;SDS011;60613;48.658;2.328;2022-08-04T12:23:42;6.85;;;1.17;;
72575;SDS011;60613;48.658;2.328;2022-08-04T12:26:55;4.97;;;1.08;;
72575;SDS011;60613;48.658;2.328;2022-08-04T12:28:59;4.57;;;1.10;;
72575;SDS011;60613;48.658;2.328;2022-08-04T12:31:26;5.13;;;1.10;;
72575;SDS011;60613;48.658;2.328;2022-08-04T12:34:07;6.45;;;1.00;;
72575;SDS011;60613;48.658;2.328;2022-08-04T12:39:55;3.40;;;1.02;;
72575;SDS011;60613;48.658;2.328;2022-08-04T12:42:27;3.07;;;1.00;;
72575;SDS011;60613;48.658;2.328;2022-08-04T12:45:02;3.33;;;1.00;;
72575;SDS011;60613;48.658;2.328;2022-08-04T12:47:31;3.22;;;1.02;;
72575;SDS011;60613;48.658;2.328;2022-08-04T12:50:00;3.60;;;1.08;;
72575;SDS011;60613;48.658;2.328;2022-08-04T12:52:29;4.68;;;0.90;;
72575;SDS011;60613;48.658;2.328;2022-08-04T12:54:57;6.00;;;1.30;;
72575;SDS011;60613;48.658;2.328;2022-08-04T12:57:23;3.08;;;1.10;;
72575;SDS011;60613;48.658;2.328;2022-08-04T12:59:50;5.03;;;1.30;;
72575;SDS011;60613;48.658;2.328;2022-08-04T13:02:23;5.60;;;1.20;;
72575;SDS011;60613;48.658;2.328;2022-08-04T13:04:52;6.53;;;1.20;;
72575;SDS011;60613;48.658;2.328;2022-08-04T13:07:21;3.55;;;1.10;;
72575;SDS011;60613;48.658;2.328;2022-08-04T13:09:49;4.95;;;1.15;;
72575;SDS011;60613;48.658;2.328;2022-08-04T13:12:33;3.47;;;1.10;;
72575;SDS011;60613;48.658;2.328;2022-08-04T13:15:11;4.23;;;1.30;;
72575;SDS011;60613;48.658;2.328;2022-08-04T13:17:52;4.78;;;1.30;;
72575;SDS011;60613;48.658;2.328;2022-08-04T13:20:33;3.97;;;1.13;;
72575;SDS011;60613;48.658;2.328;2022-08-04T13:23:10;6.57;;;1.38;;
72575;SDS011;60613;48.658;2.328;2022-08-04T13:25:43;4.25;;;1.35;;
72575;SDS011;60613;48.658;2.328;2022-08-04T13:28:15;5.73;;;1.30;;
72575;SDS011;60613;48.658;2.328;2022-08-04T13:30:53;5.95;;;1.20;;
72575;SDS011;60613;48.658;2.328;2022-08-04T13:33:21;3.88;;;1.15;;
72575;SDS011;60613;48.658;2.328;2022-08-04T13:35:55;3.63;;;1.30;;
72575;SDS011;60613;48.658;2.328;2022-08-04T13:38:24;5.55;;;1.50;;
72575;SDS011;60613;48.658;2.328;2022-08-04T13:40:51;5.33;;;1.43;;
72575;SDS011;60613;48.658;2.328;2022-08-04T13:43:24;6.07;;;1.20;;
72575;SDS011;60613;48.658;2.328;2022-08-04T13:45:57;4.22;;;1.20;;
72575;SDS011;60613;48.658;2.328;2022-08-04T13:48:29;7.55;;;1.30;;
72575;SDS011;60613;48.658;2.328;2022-08-04T13:51:03;4.75;;;1.30;;
72575;SDS011;60613;48.658;2.328;2022-08-04T13:53:34;4.40;;;1.30;;
72575;SDS011;60613;48.658;2.328;2022-08-04T13:56:03;3.53;;;1.15;;
72575;SDS011;60613;48.658;2.328;2022-08-04T13:58:34;3.90;;;1.20;;
72575;SDS011;60613;48.658;2.328;2022-08-04T14:01:17;5.32;;;1.45;;
72575;SDS011;60613;48.658;2.328;2022-08-04T14:09:02;5.05;;;1.35;;
72575;SDS011;60613;48.658;2.328;2022-08-04T14:11:47;5.53;;;1.33;;
72575;SDS011;60613;48.658;2.328;2022-08-04T14:14:20;2.78;;;1.02;;
72575;SDS011;60613;48.658;2.328;2022-08-04T14:30:34;3.80;;;1.33;;
72575;SDS011;60613;48.658;2.328;2022-08-04T14:33:03;3.33;;;1.20;;
72575;SDS011;60613;48.658;2.328;2022-08-04T14:35:29;4.10;;;1.15;;
72575;SDS011;60613;48.658;2.328;2022-08-04T14:40:28;6.32;;;1.25;;
72575;SDS011;60613;48.658;2.328;2022-08-04T14:42:56;3.65;;;1.10;;
72575;SDS011;60613;48.658;2.328;2022-08-04T14:48:01;5.93;;;1.30;;
72575;SDS011;60613;48.658;2.328;2022-08-04T14:50:32;3.20;;;1.10;;
72575;SDS011;60613;48.658;2.328;2022-08-04T14:53:09;4.35;;;1.10;;
72575;SDS011;60613;48.658;2.328;2022-08-04T14:55:36;3.45;;;1.10;;
72575;SDS011;60613;48.658;2.328;2022-08-04T14:58:04;4.37;;;1.10;;
72575;SDS011;60613;48.658;2.328;2022-08-04T15:00:32;3.35;;;1.10;;
72575;SDS011;60613;48.658;2.328;2022-08-04T15:03:00;3.92;;;1.20;;
72575;SDS011;60613;48.658;2.328;2022-08-04T15:05:32;2.75;;;1.00;;
72575;SDS011;60613;48.658;2.328;2022-08-04T15:07:59;3.50;;;1.20;;
72575;SDS011;60613;48.658;2.328;2022-08-04T15:10:25;4.53;;;1.13;;
72575;SDS011;60613;48.658;2.328;2022-08-04T15:12:52;2.30;;;1.10;;
72575;SDS011;60613;48.658;2.328;2022-08-04T15:15:18;3.42;;;1.10;;
72575;SDS011;60613;48.658;2.328;2022-08-04T15:17:44;2.60;;;1.10;;
72575;SDS011;60613;48.658;2.328;2022-08-04T15:20:11;3.25;;;1.20;;
72575;SDS011;60613;48.658;2.328;2022-08-04T15:22:37;3.17;;;0.90;;
72575;SDS011;60613;48.658;2.328;2022-08-04T15:25:03;3.25;;;0.90;;
72575;SDS011;60613;48.658;2.328;2022-08-04T15:27:30;3.42;;;1.15;;
72575;SDS011;60613;48.658;2.328;2022-08-04T15:30:04;4.60;;;1.17;;
72575;SDS011;60613;48.658;2.328;2022-08-04T15:32:38;3.13;;;1.10;;
72575;SDS011;60613;48.658;2.328;2022-08-04T15:35:10;3.58;;;1.00;;
72575;SDS011;60613;48.658;2.328;2022-08-04T15:45:52;3.50;;;1.08;;
72575;SDS011;60613;48.658;2.328;2022-08-04T15:48:22;2.85;;;1.00;;
72575;SDS011;60613;48.658;2.328;2022-08-04T15:56:02;2.23;;;0.97;;
72575;SDS011;60613;48.658;2.328;2022-08-04T15:58:51;4.45;;;1.10;;
72575;SDS011;60613;48.658;2.328;2022-08-04T16:01:21;3.22;;;1.20;;
72575;SDS011;60613;48.658;2.328;2022-08-04T16:03:48;3.20;;;1.13;;
72575;SDS011;60613;48.658;2.328;2022-08-04T16:16:28;4.70;;;1.20;;
72575;SDS011;60613;48.658;2.328;2022-08-04T16:19:10;3.58;;;1.13;;
72575;SDS011;60613;48.658;2.328;2022-08-04T16:21:47;2.55;;;1.10;;
72575;SDS011;60613;48.658;2.328;2022-08-04T16:24:16;3.75;;;1.10;;
72575;SDS011;60613;48.658;2.328;2022-08-04T16:26:46;3.35;;;1.10;;
72575;SDS011;60613;48.658;2.328;2022-08-04T16:29:34;4.73;;;1.10;;
72575;SDS011;60613;48.658;2.328;2022-08-04T16:34:39;3.73;;;1.10;;
72575;SDS011;60613;48.658;2.328;2022-08-04T16:37:13;4.90;;;1.37;;
72575;SDS011;60613;48.658;2.328;2022-08-04T16:39:40;6.28;;;1.65;;
72575;SDS011;60613;48.658;2.328;2022-08-04T16:45:02;6.38;;;1.33;;
72575;SDS011;60613;48.658;2.328;2022-08-04T16:52:49;6.57;;;1.45;;
72575;SDS011;60613;48.658;2.328;2022-08-04T16:55:17;6.88;;;2.00;;
72575;SDS011;60613;48.658;2.328;2022-08-04T16:57:51;5.78;;;1.52;;
72575;SDS011;60613;48.658;2.328;2022-08-04T17:00:29;6.50;;;1.50;;
72575;SDS011;60613;48.658;2.328;2022-08-04T17:02:56;6.20;;;1.70;;
72575;SDS011;60613;48.658;2.328;2022-08-04T17:05:22;7.45;;;1.95;;
72575;SDS011;60613;48.658;2.328;2022-08-04T17:07:52;5.55;;;1.70;;
72575;SDS011;60613;48.658;2.328;2022-08-04T17:10:31;7.10;;;1.80;;
72575;SDS011;60613;48.658;2.328;2022-08-04T17:16:02;8.27;;;1.83;;
72575;SDS011;60613;48.658;2.328;2022-08-04T17:18:31;4.22;;;1.70;;
72575;SDS011;60613;48.658;2.328;2022-08-04T17:21:01;6.03;;;1.80;;
72575;SDS011;60613;48.658;2.328;2022-08-04T17:25:56;8.77;;;2.08;;
72575;SDS011;60613;48.658;2.328;2022-08-04T17:28:23;8.05;;;2.15;;
72575;SDS011;60613;48.658;2.328;2022-08-04T17:30:50;9.67;;;2.13;;
72575;SDS011;60613;48.658;2.328;2022-08-04T17:33:16;6.88;;;2.00;;
72575;SDS011;60613;48.658;2.328;2022-08-04T17:35:44;9.55;;;2.10;;
72575;SDS011;60613;48.658;2.328;2022-08-04T17:38:11;6.50;;;2.10;;
72575;SDS011;60613;48.658;2.328;2022-08-04T17:40:56;5.37;;;2.13;;
72575;SDS011;60613;48.658;2.328;2022-08-04T17:43:33;7.53;;;3.13;;
72575;SDS011;60613;48.658;2.328;2022-08-04T17:54:32;18.47;;;7.80;;
72575;SDS011;60613;48.658;2.328;2022-08-04T17:57:12;21.67;;;9.43;;
72575;SDS011;60613;48.658;2.328;2022-08-04T17:59:50;26.88;;;10.15;;
72575;SDS011;60613;48.658;2.328;2022-08-04T18:02:21;18.13;;;6.72;;
72575;SDS011;60613;48.658;2.328;2022-08-04T18:04:49;11.95;;;4.82;;
72575;SDS011;60613;48.658;2.328;2022-08-04T18:07:20;10.83;;;3.90;;
72575;SDS011;60613;48.658;2.328;2022-08-04T18:12:22;6.65;;;2.63;;
72575;SDS011;60613;48.658;2.328;2022-08-04T18:14:54;8.63;;;2.67;;
72575;SDS011;60613;48.658;2.328;2022-08-04T18:17:35;8.40;;;2.85;;
72575;SDS011;60613;48.658;2.328;2022-08-04T18:20:07;7.37;;;2.80;;
72575;SDS011;60613;48.658;2.328;2022-08-04T18:22:35;9.02;;;2.65;;
72575;SDS011;60613;48.658;2.328;2022-08-04T18:25:01;7.68;;;2.80;;
72575;SDS011;60613;48.658;2.328;2022-08-04T18:27:28;11.35;;;2.58;;
72575;SDS011;60613;48.658;2.328;2022-08-04T18:29:54;7.75;;;2.65;;
72575;SDS011;60613;48.658;2.328;2022-08-04T18:32:21;7.17;;;2.83;;
72575;SDS011;60613;48.658;2.328;2022-08-04T18:34:48;7.63;;;2.75;;
72575;SDS011;60613;48.658;2.328;2022-08-04T18:37:15;7.25;;;2.80;;
72575;SDS011;60613;48.658;2.328;2022-08-04T18:39:41;7.65;;;2.83;;
72575;SDS011;60613;48.658;2.328;2022-08-04T18:42:07;6.93;;;2.50;;
72575;SDS011;60613;48.658;2.328;2022-08-04T18:44:33;6.53;;;2.60;;
72575;SDS011;60613;48.658;2.328;2022-08-04T18:46:59;7.57;;;2.75;;
72575;SDS011;60613;48.658;2.328;2022-08-04T18:49:25;7.57;;;2.70;;
72575;SDS011;60613;48.658;2.328;2022-08-04T18:51:53;8.33;;;2.73;;
72575;SDS011;60613;48.658;2.328;2022-08-04T18:54:20;7.20;;;2.65;;
72575;SDS011;60613;48.658;2.328;2022-08-04T18:56:48;9.15;;;2.55;;
72575;SDS011;60613;48.658;2.328;2022-08-04T18:59:16;8.05;;;2.83;;
72575;SDS011;60613;48.658;2.328;2022-08-04T19:01:41;7.00;;;2.67;;
72575;SDS011;60613;48.658;2.328;2022-08-04T19:04:08;9.63;;;2.78;;
72575;SDS011;60613;48.658;2.328;2022-08-04T19:06:34;7.63;;;2.47;;
72575;SDS011;60613;48.658;2.328;2022-08-04T19:09:01;7.72;;;2.63;;
72575;SDS011;60613;48.658;2.328;2022-08-04T19:11:28;8.40;;;2.53;;
72575;SDS011;60613;48.658;2.328;2022-08-04T19:13:54;8.52;;;2.60;;
72575;SDS011;60613;48.658;2.328;2022-08-04T19:16:20;9.40;;;2.60;;
72575;SDS011;60613;48.658;2.328;2022-08-04T19:18:45;9.00;;;2.60;;
72575;SDS011;60613;48.658;2.328;2022-08-04T19:21:11;8.18;;;2.20;;
72575;SDS011;60613;48.658;2.328;2022-08-04T19:23:37;7.80;;;2.07;;
72575;SDS011;60613;48.658;2.328;2022-08-04T19:26:03;9.40;;;2.40;;
72575;SDS011;60613;48.658;2.328;2022-08-04T19:28:29;5.35;;;1.90;;
72575;SDS011;60613;48.658;2.328;2022-08-04T19:30:56;11.30;;;2.20;;
72575;SDS011;60613;48.658;2.328;2022-08-04T19:33:22;5.80;;;2.00;;
72575;SDS011;60613;48.658;2.328;2022-08-04T19:35:48;6.43;;;2.28;;
72575;SDS011;60613;48.658;2.328;2022-08-04T19:38:14;6.33;;;1.80;;
72575;SDS011;60613;48.658;2.328;2022-08-04T19:40:42;7.70;;;2.00;;
72575;SDS011;60613;48.658;2.328;2022-08-04T19:43:09;6.63;;;1.90;;
72575;SDS011;60613;48.658;2.328;2022-08-04T19:45:35;6.20;;;2.00;;
72575;SDS011;60613;48.658;2.328;2022-08-04T19:48:01;5.47;;;1.80;;
72575;SDS011;60613;48.658;2.328;2022-08-04T19:50:28;6.43;;;1.90;;
72575;SDS011;60613;48.658;2.328;2022-08-04T19:52:54;4.95;;;1.90;;
72575;SDS011;60613;48.658;2.328;2022-08-04T19:55:20;7.90;;;2.00;;
72575;SDS011;60613;48.658;2.328;2022-08-04T19:57:47;6.13;;;1.90;;
72575;SDS011;60613;48.658;2.328;2022-08-04T20:00:14;5.97;;;1.80;;
72575;SDS011;60613;48.658;2.328;2022-08-04T20:02:41;7.03;;;1.90;;
72575;SDS011;60613;48.658;2.328;2022-08-04T20:05:08;8.55;;;2.00;;
72575;SDS011;60613;48.658;2.328;2022-08-04T20:07:33;8.13;;;2.20;;
72575;SDS011;60613;48.658;2.328;2022-08-04T20:09:59;6.45;;;2.00;;
72575;SDS011;60613;48.658;2.328;2022-08-04T20:12:25;6.18;;;1.92;;
72575;SDS011;60613;48.658;2.328;2022-08-04T20:14:51;6.40;;;2.20;;
72575;SDS011;60613;48.658;2.328;2022-08-04T20:17:16;6.03;;;2.00;;
72575;SDS011;60613;48.658;2.328;2022-08-04T20:19:42;6.20;;;1.90;;
72575;SDS011;60613;48.658;2.328;2022-08-04T20:22:08;5.20;;;1.70;;